Wilma — V2AB2 — position and weather

sailwx.info

Track history (hours):
 
Tides and Currents Weather Stations Pressure Air Temp Water Temp Dewpoint Dewpoint Depression Visibility Wind Speed Wind Dir Waves Ship Positions

Wilma

Last reported at 2015-Sep-03 11:17 UTC. Time now 2015-Sep-04 16:35 UTC.
Position N 31°26' E 032°19'.

Length 152 m; draft 6.8 m.

Type: Ship. MMSI: 304080754.

Date/timePositionNaut miles runAvg speedWind from/ knotsBaromVisibWave heightAir tempDewpointWater temp
2015-Sep-03 11:17N 31°26' E 032°19'1317.5
2015-Sep-03 10:33N 31°35' E 032°09'  
2015-Sep-01 05:31N 36°05' E 014°39'1718.0
2015-Sep-01 04:33N 36°13' E 014°20'1918.3
2015-Sep-01 03:32N 36°20' E 013°58'3818.8
2015-Sep-01 01:30N 36°36' E 013°15'7918.7
2015-Aug-31 21:16N 37°09' E 011°45'1318.3
2015-Aug-31 20:33N 37°14' E 011°30'1918.5
2015-Aug-31 19:31N 37°24' E 011°09'3517.7
2015-Aug-31 17:33N 37°43' E 010°32'2017.7
2015-Aug-31 16:25N 37°53' E 010°11'1517.3
2015-Aug-31 15:33N 37°59' E 009°53'1717.6
2015-Aug-31 14:33N 37°58' E 009°31'1917.6
2015-Aug-31 13:27N 37°57' E 009°06'1617.4
2015-Aug-31 12:32N 37°54' E 008°47'12117.2
2015-Aug-31 05:31N 37°40' E 006°15'1817.7
2015-Aug-31 04:31N 37°38' E 005°53'21817.7
2015-Aug-30 16:10N 36°53' E 001°24'3617.8
2015-Aug-30 14:07N 36°44' E 000°40'1818.1
2015-Aug-30 13:08N 36°40' E 000°18'39516.5
2015-Aug-29 13:11N 36°27' W 007°53'9015.8
2015-Aug-29 07:28N 36°60' W 009°38'1718.1
2015-Aug-29 06:32N 37°16' W 009°42'1818.4
2015-Aug-29 05:33N 37°34' W 009°48'1817.8
2015-Aug-29 04:33N 37°51' W 009°53'1917.8
2015-Aug-29 03:29N 38°10' W 009°59'1718.4
2015-Aug-29 02:33N 38°26' W 010°03'1918.5
2015-Aug-29 01:33N 38°45' W 010°07'1818.2
2015-Aug-29 00:33N 39°03' W 010°07'1818.0
2015-Aug-28 23:32N 39°21' W 010°07'1918.7
2015-Aug-28 22:32N 39°40' W 010°07'1918.0
2015-Aug-28 21:31N 39°58' W 010°01'1818.0
2015-Aug-28 20:30N 40°15' W 009°54'2017.8
2015-Aug-28 19:22N 40°34' W 009°45'  
Track history (hours):
 
Tides and Currents Weather Stations Pressure Air Temp Water Temp Dewpoint Dewpoint Depression Visibility Wind Speed Wind Dir Waves Ship Positions

Wilma

Last reported at 2015-Sep-03 11:17 UTC. Time now 2015-Sep-04 16:35 UTC.
Position N 31°26' E 032°19'.

Length 152 m; draft 6.8 m.

Type: Ship. MMSI: 304080754.

Date/timePositionNaut miles runAvg speedWind from/ knotsBaromVisibWave heightAir tempDewpointWater temp
2015-Sep-03 11:17N 31°26' E 032°19'1317.5
2015-Sep-03 10:33N 31°35' E 032°09'  
2015-Sep-01 05:31N 36°05' E 014°39'1718.0
2015-Sep-01 04:33N 36°13' E 014°20'1918.3
2015-Sep-01 03:32N 36°20' E 013°58'3818.8
2015-Sep-01 01:30N 36°36' E 013°15'7918.7
2015-Aug-31 21:16N 37°09' E 011°45'1318.3
2015-Aug-31 20:33N 37°14' E 011°30'1918.5
2015-Aug-31 19:31N 37°24' E 011°09'3517.7
2015-Aug-31 17:33N 37°43' E 010°32'2017.7
2015-Aug-31 16:25N 37°53' E 010°11'1517.3
2015-Aug-31 15:33N 37°59' E 009°53'1717.6
2015-Aug-31 14:33N 37°58' E 009°31'1917.6
2015-Aug-31 13:27N 37°57' E 009°06'1617.4
2015-Aug-31 12:32N 37°54' E 008°47'12117.2
2015-Aug-31 05:31N 37°40' E 006°15'1817.7
2015-Aug-31 04:31N 37°38' E 005°53'21817.7
2015-Aug-30 16:10N 36°53' E 001°24'3617.8
2015-Aug-30 14:07N 36°44' E 000°40'1818.1
2015-Aug-30 13:08N 36°40' E 000°18'39516.5
2015-Aug-29 13:11N 36°27' W 007°53'9015.8
2015-Aug-29 07:28N 36°60' W 009°38'1718.1
2015-Aug-29 06:32N 37°16' W 009°42'1818.4
2015-Aug-29 05:33N 37°34' W 009°48'1817.8
2015-Aug-29 04:33N 37°51' W 009°53'1917.8
2015-Aug-29 03:29N 38°10' W 009°59'1718.4
2015-Aug-29 02:33N 38°26' W 010°03'1918.5
2015-Aug-29 01:33N 38°45' W 010°07'1818.2
2015-Aug-29 00:33N 39°03' W 010°07'1818.0
2015-Aug-28 23:32N 39°21' W 010°07'1918.7
2015-Aug-28 22:32N 39°40' W 010°07'1918.0
2015-Aug-28 21:31N 39°58' W 010°01'1818.0
2015-Aug-28 20:30N 40°15' W 009°54'2017.8
2015-Aug-28 19:22N 40°34' W 009°45'  

Dump ship's entire track history